Kortessem, Belgium
Current Conditions -  °F | °C
As of 6:20 PM on Thursday 18 Dec 2014 (Local Time) from EBLG Reporting Station
Broken Clouds Broken Clouds  
Wind Chill: 52°   Ceiling: 1500
Heat Index: 52°   Visibility: 6mi
Dew Point: 48°   Wind: 24mph
Humidity: 88%   Direction: 230°SW
Pressure: 29.94"   Gusts: NA
Location:  50.86°N, 5.39°E
Report Text: EBLG 181720Z 23021KT 9999 BKN015 11/09 Q1014 TEMPO 24023G35KT BKN012
Loading
Personal Weather Stations






























Interactive Weather Map New forecast layout! Learn more

10-Day Weather Forecast

Advertisements
Track Severe Weather on mobile